sensor_id;sensor_type;location;lat;lon;timestamp;pressure;altitude;pressure_sealevel;temperature;humidity
72950;BME280;64868;45.710;9.590;2023-04-05T00:00:50;99085.88;;;4.06;59.28
72950;BME280;64868;45.710;9.590;2023-04-05T00:03:23;99086.00;;;4.03;59.17
72950;BME280;64868;45.710;9.590;2023-04-05T00:05:54;99057.91;;;3.88;59.35
72950;BME280;64868;45.710;9.590;2023-04-05T00:08:24;99082.97;;;4.10;58.88
72950;BME280;64868;45.710;9.590;2023-04-05T00:10:54;99098.81;;;4.18;58.69
72950;BME280;64868;45.710;9.590;2023-04-05T00:13:27;99088.41;;;4.09;58.36
72950;BME280;64868;45.710;9.590;2023-04-05T00:15:57;99053.13;;;3.74;58.97
72950;BME280;64868;45.710;9.590;2023-04-05T00:18:27;99104.50;;;3.92;59.20
72950;BME280;64868;45.710;9.590;2023-04-05T00:21:03;99091.28;;;3.85;58.46
72950;BME280;64868;45.710;9.590;2023-04-05T00:23:35;99057.66;;;3.74;58.36
72950;BME280;64868;45.710;9.590;2023-04-05T00:26:08;99072.28;;;3.68;58.96
72950;BME280;64868;45.710;9.590;2023-04-05T00:28:38;99067.56;;;3.73;59.14
72950;BME280;64868;45.710;9.590;2023-04-05T00:31:11;99093.19;;;3.83;59.27
72950;BME280;64868;45.710;9.590;2023-04-05T00:33:41;99086.19;;;3.79;59.47
72950;BME280;64868;45.710;9.590;2023-04-05T00:36:11;99109.28;;;3.85;58.66
72950;BME280;64868;45.710;9.590;2023-04-05T00:38:43;99102.94;;;3.86;58.81
72950;BME280;64868;45.710;9.590;2023-04-05T00:41:16;99095.00;;;3.83;58.90
72950;BME280;64868;45.710;9.590;2023-04-05T00:43:49;98984.66;;;3.19;58.38
72950;BME280;64868;45.710;9.590;2023-04-05T00:46:21;99095.94;;;3.82;58.12
72950;BME280;64868;45.710;9.590;2023-04-05T00:48:54;99084.06;;;3.86;58.37
72950;BME280;64868;45.710;9.590;2023-04-05T00:51:27;99069.03;;;3.80;56.98
72950;BME280;64868;45.710;9.590;2023-04-05T00:53:55;99083.97;;;4.08;57.22
72950;BME280;64868;45.710;9.590;2023-04-05T00:56:25;99094.34;;;4.17;56.03
72950;BME280;64868;45.710;9.590;2023-04-05T00:58:56;99083.63;;;4.15;56.35
72950;BME280;64868;45.710;9.590;2023-04-05T01:01:30;99088.31;;;4.31;54.58
72950;BME280;64868;45.710;9.590;2023-04-05T01:04:02;99047.81;;;4.12;55.84
72950;BME280;64868;45.710;9.590;2023-04-05T01:06:54;99090.22;;;4.48;54.86
72950;BME280;64868;45.710;9.590;2023-04-05T01:12:07;99078.84;;;4.60;54.62
72950;BME280;64868;45.710;9.590;2023-04-05T01:14:51;99091.97;;;4.68;54.65
72950;BME280;64868;45.710;9.590;2023-04-05T01:17:21;99062.66;;;4.60;53.51
72950;BME280;64868;45.710;9.590;2023-04-05T01:19:54;99080.94;;;4.72;52.94
72950;BME280;64868;45.710;9.590;2023-04-05T01:28:39;99084.44;;;4.93;52.09
72950;BME280;64868;45.710;9.590;2023-04-05T01:34:21;99074.63;;;5.09;51.87
72950;BME280;64868;45.710;9.590;2023-04-05T01:36:58;99049.47;;;5.07;50.82
72950;BME280;64868;45.710;9.590;2023-04-05T01:39:33;99030.19;;;5.15;50.37
72950;BME280;64868;45.710;9.590;2023-04-05T01:42:06;99077.59;;;5.40;49.47
72950;BME280;64868;45.710;9.590;2023-04-05T01:44:39;99080.44;;;5.19;50.95
72950;BME280;64868;45.710;9.590;2023-04-05T01:47:11;99072.97;;;5.24;51.13
72950;BME280;64868;45.710;9.590;2023-04-05T01:49:44;99071.38;;;5.20;51.16
72950;BME280;64868;45.710;9.590;2023-04-05T01:52:16;99035.78;;;5.12;51.08
72950;BME280;64868;45.710;9.590;2023-04-05T01:54:47;99068.63;;;5.39;50.98
72950;BME280;64868;45.710;9.590;2023-04-05T01:57:20;99072.19;;;5.40;51.04
72950;BME280;64868;45.710;9.590;2023-04-05T01:59:47;99016.84;;;5.12;50.74
72950;BME280;64868;45.710;9.590;2023-04-05T02:02:20;99047.38;;;5.31;50.14
72950;BME280;64868;45.710;9.590;2023-04-05T02:04:50;99071.94;;;5.44;50.52
72950;BME280;64868;45.710;9.590;2023-04-05T02:07:20;99070.28;;;5.42;50.56
72950;BME280;64868;45.710;9.590;2023-04-05T02:09:53;99003.88;;;5.01;50.66
72950;BME280;64868;45.710;9.590;2023-04-05T02:12:23;99048.09;;;5.35;50.58
72950;BME280;64868;45.710;9.590;2023-04-05T02:14:56;99033.41;;;5.23;50.55
72950;BME280;64868;45.710;9.590;2023-04-05T02:17:28;99067.34;;;5.46;50.47
72950;BME280;64868;45.710;9.590;2023-04-05T02:20:03;99064.41;;;5.51;50.87
72950;BME280;64868;45.710;9.590;2023-04-05T02:22:35;99073.94;;;5.75;49.45
72950;BME280;64868;45.710;9.590;2023-04-05T02:25:08;99076.88;;;5.71;49.77
72950;BME280;64868;45.710;9.590;2023-04-05T02:27:39;99079.03;;;5.81;49.08
72950;BME280;64868;45.710;9.590;2023-04-05T02:30:09;99058.03;;;5.69;49.02
72950;BME280;64868;45.710;9.590;2023-04-05T02:32:42;99076.56;;;5.77;48.30
72950;BME280;64868;45.710;9.590;2023-04-05T02:35:13;99073.78;;;5.78;48.53
72950;BME280;64868;45.710;9.590;2023-04-05T02:37:45;99074.34;;;5.85;47.27
72950;BME280;64868;45.710;9.590;2023-04-05T02:40:16;99009.47;;;5.50;47.18
72950;BME280;64868;45.710;9.590;2023-04-05T02:42:48;99068.94;;;5.68;48.68
72950;BME280;64868;45.710;9.590;2023-04-05T02:45:19;99082.03;;;5.75;49.21
72950;BME280;64868;45.710;9.590;2023-04-05T02:47:51;99034.41;;;5.55;49.47
72950;BME280;64868;45.710;9.590;2023-04-05T02:50:24;99043.09;;;5.45;49.44
72950;BME280;64868;45.710;9.590;2023-04-05T02:52:56;99074.72;;;5.60;49.68
72950;BME280;64868;45.710;9.590;2023-04-05T02:55:21;99075.47;;;5.81;48.53
72950;BME280;64868;45.710;9.590;2023-04-05T02:57:55;99038.72;;;5.42;49.67
72950;BME280;64868;45.710;9.590;2023-04-05T03:00:28;99081.59;;;5.67;49.49
72950;BME280;64868;45.710;9.590;2023-04-05T03:03:01;99065.84;;;5.58;49.37
72950;BME280;64868;45.710;9.590;2023-04-05T03:05:31;99058.03;;;5.52;49.20
72950;BME280;64868;45.710;9.590;2023-04-05T03:08:03;99059.88;;;5.51;48.32
72950;BME280;64868;45.710;9.590;2023-04-05T03:10:34;99015.41;;;5.22;48.87
72950;BME280;64868;45.710;9.590;2023-04-05T03:13:07;99075.22;;;5.51;48.14
72950;BME280;64868;45.710;9.590;2023-04-05T03:15:39;99079.03;;;5.64;47.84
72950;BME280;64868;45.710;9.590;2023-04-05T03:18:12;99079.59;;;5.71;46.97
72950;BME280;64868;45.710;9.590;2023-04-05T03:20:45;99076.31;;;5.81;47.18
72950;BME280;64868;45.710;9.590;2023-04-05T03:23:19;99078.31;;;5.78;47.24
72950;BME280;64868;45.710;9.590;2023-04-05T03:25:51;99073.94;;;5.75;48.22
72950;BME280;64868;45.710;9.590;2023-04-05T03:28:19;99052.69;;;5.68;48.15
72950;BME280;64868;45.710;9.590;2023-04-05T03:30:52;99049.06;;;5.69;48.59
72950;BME280;64868;45.710;9.590;2023-04-05T03:33:24;99061.16;;;5.61;49.03
72950;BME280;64868;45.710;9.590;2023-04-05T03:35:58;99076.31;;;5.64;49.29
72950;BME280;64868;45.710;9.590;2023-04-05T03:38:28;99071.72;;;5.66;49.05
72950;BME280;64868;45.710;9.590;2023-04-05T03:40:58;99073.56;;;5.66;49.29
72950;BME280;64868;45.710;9.590;2023-04-05T03:43:30;99051.97;;;5.64;49.35
72950;BME280;64868;45.710;9.590;2023-04-05T03:46:03;99066.00;;;5.55;50.79
72950;BME280;64868;45.710;9.590;2023-04-05T03:48:33;99063.28;;;5.55;50.52
72950;BME280;64868;45.710;9.590;2023-04-05T03:51:06;99014.53;;;5.22;51.23
72950;BME280;64868;45.710;9.590;2023-04-05T03:53:39;99040.25;;;5.30;51.25
72950;BME280;64868;45.710;9.590;2023-04-05T03:56:11;99056.22;;;5.35;51.62
72950;BME280;64868;45.710;9.590;2023-04-05T03:58:44;99058.19;;;5.31;52.05
72950;BME280;64868;45.710;9.590;2023-04-05T04:01:11;99017.16;;;5.06;51.80
72950;BME280;64868;45.710;9.590;2023-04-05T04:03:43;99029.41;;;5.13;51.55
72950;BME280;64868;45.710;9.590;2023-04-05T04:06:16;99051.22;;;5.27;51.78
72950;BME280;64868;45.710;9.590;2023-04-05T04:08:46;99047.06;;;5.37;51.04
72950;BME280;64868;45.710;9.590;2023-04-05T04:11:19;99011.59;;;5.26;50.61
72950;BME280;64868;45.710;9.590;2023-04-05T04:13:47;99039.34;;;5.47;50.40
72950;BME280;64868;45.710;9.590;2023-04-05T04:16:17;99011.28;;;5.32;49.58
72950;BME280;64868;45.710;9.590;2023-04-05T04:18:49;99050.50;;;5.58;49.73
72950;BME280;64868;45.710;9.590;2023-04-05T04:21:23;99063.84;;;5.61;49.26
72950;BME280;64868;45.710;9.590;2023-04-05T04:23:55;99033.38;;;5.41;49.66
72950;BME280;64868;45.710;9.590;2023-04-05T04:26:28;99049.22;;;5.48;50.03
72950;BME280;64868;45.710;9.590;2023-04-05T04:28:58;99057.06;;;5.53;50.71
72950;BME280;64868;45.710;9.590;2023-04-05T04:31:28;99058.91;;;5.52;50.48
72950;BME280;64868;45.710;9.590;2023-04-05T04:34:01;99057.41;;;5.47;51.02
72950;BME280;64868;45.710;9.590;2023-04-05T04:36:33;99061.38;;;5.40;51.27
72950;BME280;64868;45.710;9.590;2023-04-05T04:39:08;99055.72;;;5.44;51.52
72950;BME280;64868;45.710;9.590;2023-04-05T04:41:38;99056.47;;;5.30;51.62
72950;BME280;64868;45.710;9.590;2023-04-05T04:44:11;99053.03;;;5.27;52.28
72950;BME280;64868;45.710;9.590;2023-04-05T04:46:41;99020.47;;;4.94;52.57
72950;BME280;64868;45.710;9.590;2023-04-05T04:49:16;99062.78;;;5.12;53.16
72950;BME280;64868;45.710;9.590;2023-04-05T04:51:49;99034.22;;;4.89;52.94
72950;BME280;64868;45.710;9.590;2023-04-05T04:54:19;99032.88;;;4.98;52.93
72950;BME280;64868;45.710;9.590;2023-04-05T04:56:49;99070.03;;;5.11;52.99
72950;BME280;64868;45.710;9.590;2023-04-05T04:59:22;99042.16;;;4.92;53.11
72950;BME280;64868;45.710;9.590;2023-04-05T05:01:50;99064.03;;;5.05;53.11
72950;BME280;64868;45.710;9.590;2023-04-05T05:04:23;99061.19;;;5.08;53.56
72950;BME280;64868;45.710;9.590;2023-04-05T05:06:55;99053.16;;;5.06;52.87
72950;BME280;64868;45.710;9.590;2023-04-05T05:09:28;99067.63;;;5.05;53.65
72950;BME280;64868;45.710;9.590;2023-04-05T05:11:58;99072.16;;;5.05;53.59
72950;BME280;64868;45.710;9.590;2023-04-05T05:14:31;99072.88;;;5.08;53.41
72950;BME280;64868;45.710;9.590;2023-04-05T05:16:58;99082.44;;;5.16;53.44
72950;BME280;64868;45.710;9.590;2023-04-05T05:19:31;99080.75;;;5.13;53.76
72950;BME280;64868;45.710;9.590;2023-04-05T05:21:59;99027.47;;;4.98;53.59
72950;BME280;64868;45.710;9.590;2023-04-05T05:24:29;99054.53;;;5.32;52.87
72950;BME280;64868;45.710;9.590;2023-04-05T05:26:59;99053.75;;;5.48;52.18
72950;BME280;64868;45.710;9.590;2023-04-05T05:29:29;99075.38;;;5.65;52.12
72950;BME280;64868;45.710;9.590;2023-04-05T05:31:57;99094.41;;;5.81;51.88
72950;BME280;64868;45.710;9.590;2023-04-05T05:34:27;99049.78;;;5.72;50.74
72950;BME280;64868;45.710;9.590;2023-04-05T05:37:00;99052.69;;;5.85;51.49
72950;BME280;64868;45.710;9.590;2023-04-05T05:39:33;99029.63;;;5.78;51.75
72950;BME280;64868;45.710;9.590;2023-04-05T05:42:05;99077.03;;;6.36;49.57
72950;BME280;64868;45.710;9.590;2023-04-05T05:44:38;99072.28;;;6.41;50.59
72950;BME280;64868;45.710;9.590;2023-04-05T05:47:08;99082.59;;;6.81;48.34
72950;BME280;64868;45.710;9.590;2023-04-05T05:49:40;99058.13;;;6.99;47.14
72950;BME280;64868;45.710;9.590;2023-04-05T05:52:13;99098.69;;;7.32;47.67
72950;BME280;64868;45.710;9.590;2023-04-05T05:54:43;99060.38;;;7.22;46.90
72950;BME280;64868;45.710;9.590;2023-04-05T05:57:13;99083.00;;;7.67;46.63
72950;BME280;64868;45.710;9.590;2023-04-05T05:59:44;99075.34;;;8.04;46.05
72950;BME280;64868;45.710;9.590;2023-04-05T06:02:16;99088.72;;;8.21;45.98
72950;BME280;64868;45.710;9.590;2023-04-05T06:04:47;99093.44;;;8.48;44.26
72950;BME280;64868;45.710;9.590;2023-04-05T06:07:19;99088.97;;;8.75;43.58
72950;BME280;64868;45.710;9.590;2023-04-05T06:09:52;99080.19;;;8.99;43.30
72950;BME280;64868;45.710;9.590;2023-04-05T06:12:25;99094.84;;;9.11;42.61
72950;BME280;64868;45.710;9.590;2023-04-05T06:14:57;99108.72;;;9.47;41.56
72950;BME280;64868;45.710;9.590;2023-04-05T06:17:30;99080.00;;;9.56;41.39
72950;BME280;64868;45.710;9.590;2023-04-05T06:20:02;99093.44;;;9.72;41.41
72950;BME280;64868;45.710;9.590;2023-04-05T06:22:33;99076.38;;;9.95;40.01
72950;BME280;64868;45.710;9.590;2023-04-05T06:25:05;99076.00;;;10.40;39.47
72950;BME280;64868;45.710;9.590;2023-04-05T06:27:35;99090.13;;;10.83;38.77
72950;BME280;64868;45.710;9.590;2023-04-05T06:30:09;99098.56;;;11.17;37.46
72950;BME280;64868;45.710;9.590;2023-04-05T06:32:39;99065.47;;;11.45;35.70
72950;BME280;64868;45.710;9.590;2023-04-05T06:35:12;99106.03;;;11.87;35.82
72950;BME280;64868;45.710;9.590;2023-04-05T06:37:44;99104.13;;;12.58;34.20
72950;BME280;64868;45.710;9.590;2023-04-05T06:40:15;99104.38;;;12.66;33.95
72950;BME280;64868;45.710;9.590;2023-04-05T06:42:47;99082.22;;;13.25;31.77
72950;BME280;64868;45.710;9.590;2023-04-05T06:45:15;99098.44;;;15.07;29.33
72950;BME280;64868;45.710;9.590;2023-04-05T06:47:48;99104.41;;;18.86;23.49
72950;BME280;64868;45.710;9.590;2023-04-05T06:50:20;99114.00;;;20.84;19.64
72950;BME280;64868;45.710;9.590;2023-04-05T06:52:53;99107.91;;;18.27;21.94
72950;BME280;64868;45.710;9.590;2023-04-05T06:55:25;99087.78;;;17.35;22.59
72950;BME280;64868;45.710;9.590;2023-04-05T06:57:58;99104.03;;;16.35;23.14
72950;BME280;64868;45.710;9.590;2023-04-05T07:00:28;99109.78;;;17.08;21.62
72950;BME280;64868;45.710;9.590;2023-04-05T07:03:01;99088.06;;;18.23;19.96
72950;BME280;64868;45.710;9.590;2023-04-05T07:05:33;99093.34;;;17.71;20.61
72950;BME280;64868;45.710;9.590;2023-04-05T07:08:06;99080.41;;;16.98;20.72
72950;BME280;64868;45.710;9.590;2023-04-05T07:10:38;99082.31;;;18.86;18.92
72950;BME280;64868;45.710;9.590;2023-04-05T07:13:10;99108.81;;;25.10;14.57
72950;BME280;64868;45.710;9.590;2023-04-05T07:15:40;99115.16;;;22.93;14.46
72950;BME280;64868;45.710;9.590;2023-04-05T07:18:08;99108.09;;;20.79;16.43
72950;BME280;64868;45.710;9.590;2023-04-05T07:20:36;99112.41;;;20.25;17.05
72950;BME280;64868;45.710;9.590;2023-04-05T07:23:08;99095.22;;;23.78;14.96
72950;BME280;64868;45.710;9.590;2023-04-05T07:25:41;99108.78;;;22.47;15.61
72950;BME280;64868;45.710;9.590;2023-04-05T07:28:11;99095.88;;;22.69;15.34
72950;BME280;64868;45.710;9.590;2023-04-05T07:30:44;99106.59;;;22.57;15.81
72950;BME280;64868;45.710;9.590;2023-04-05T07:33:14;99110.78;;;24.09;14.39
72950;BME280;64868;45.710;9.590;2023-04-05T07:35:47;99104.16;;;23.00;14.50
72950;BME280;64868;45.710;9.590;2023-04-05T07:38:22;99118.63;;;23.40;14.65
72950;BME280;64868;45.710;9.590;2023-04-05T07:40:52;99096.38;;;21.41;16.45
72950;BME280;64868;45.710;9.590;2023-04-05T07:43:25;99092.25;;;21.12;16.28
72950;BME280;64868;45.710;9.590;2023-04-05T07:46:00;99112.47;;;18.54;19.13
72950;BME280;64868;45.710;9.590;2023-04-05T07:48:33;99085.06;;;17.81;19.74
72950;BME280;64868;45.710;9.590;2023-04-05T07:51:10;99118.19;;;17.71;20.13
72950;BME280;64868;45.710;9.590;2023-04-05T07:53:40;99123.50;;;16.70;20.48
72950;BME280;64868;45.710;9.590;2023-04-05T07:56:14;99115.66;;;18.67;18.68
72950;BME280;64868;45.710;9.590;2023-04-05T07:58:46;99119.69;;;20.99;15.76
72950;BME280;64868;45.710;9.590;2023-04-05T08:01:19;99120.84;;;20.07;17.96
72950;BME280;64868;45.710;9.590;2023-04-05T08:03:51;99118.91;;;17.73;20.15
72950;BME280;64868;45.710;9.590;2023-04-05T08:06:24;99125.44;;;16.02;21.43
72950;BME280;64868;45.710;9.590;2023-04-05T08:08:57;99121.19;;;17.22;20.84
72950;BME280;64868;45.710;9.590;2023-04-05T08:11:27;99124.38;;;23.09;15.33
72950;BME280;64868;45.710;9.590;2023-04-05T08:13:57;99108.75;;;26.21;11.93
72950;BME280;64868;45.710;9.590;2023-04-05T08:16:29;99098.56;;;26.68;12.02
72950;BME280;64868;45.710;9.590;2023-04-05T08:19:02;99125.13;;;28.42;11.35
72950;BME280;64868;45.710;9.590;2023-04-05T08:21:32;99138.84;;;29.38;9.65
72950;BME280;64868;45.710;9.590;2023-04-05T08:24:03;99135.31;;;32.76;7.73
72950;BME280;64868;45.710;9.590;2023-04-05T08:26:35;99121.91;;;28.31;10.21
72950;BME280;64868;45.710;9.590;2023-04-05T08:29:08;99123.19;;;28.42;10.16
72950;BME280;64868;45.710;9.590;2023-04-05T08:31:40;99140.34;;;30.21;8.98
72950;BME280;64868;45.710;9.590;2023-04-05T08:34:13;99140.47;;;29.27;9.66
72950;BME280;64868;45.710;9.590;2023-04-05T08:36:43;99118.59;;;31.30;8.46
72950;BME280;64868;45.710;9.590;2023-04-05T08:39:16;99099.88;;;32.97;7.40
72950;BME280;64868;45.710;9.590;2023-04-05T08:41:59;99118.81;;;35.38;6.36
72950;BME280;64868;45.710;9.590;2023-04-05T08:44:32;99146.47;;;33.11;7.17
72950;BME280;64868;45.710;9.590;2023-04-05T08:47:06;99138.56;;;26.82;10.12
72950;BME280;64868;45.710;9.590;2023-04-05T08:49:39;99136.94;;;28.82;9.84
72950;BME280;64868;45.710;9.590;2023-04-05T08:52:13;99129.06;;;25.88;10.35
72950;BME280;64868;45.710;9.590;2023-04-05T08:54:46;99143.69;;;31.79;7.45
72950;BME280;64868;45.710;9.590;2023-04-05T08:57:20;99152.53;;;32.34;7.13
72950;BME280;64868;45.710;9.590;2023-04-05T08:59:55;99146.09;;;29.02;8.74
72950;BME280;64868;45.710;9.590;2023-04-05T09:02:27;99144.56;;;27.78;9.58
72950;BME280;64868;45.710;9.590;2023-04-05T09:04:56;99140.53;;;27.41;10.03
72950;BME280;64868;45.710;9.590;2023-04-05T09:07:29;99139.28;;;30.15;8.71
72950;BME280;64868;45.710;9.590;2023-04-05T09:10:02;99151.84;;;29.14;8.79
72950;BME280;64868;45.710;9.590;2023-04-05T09:12:37;99145.84;;;29.04;9.08
72950;BME280;64868;45.710;9.590;2023-04-05T09:15:09;99117.50;;;26.99;10.95
72950;BME280;64868;45.710;9.590;2023-04-05T09:17:44;99120.28;;;19.44;16.64
72950;BME280;64868;45.710;9.590;2023-04-05T09:20:14;99132.56;;;15.04;21.10
72950;BME280;64868;45.710;9.590;2023-04-05T09:22:46;99132.25;;;13.27;24.63
72950;BME280;64868;45.710;9.590;2023-04-05T09:25:36;99133.78;;;12.40;25.64
72950;BME280;64868;45.710;9.590;2023-04-05T09:28:08;99130.88;;;12.65;25.61
72950;BME280;64868;45.710;9.590;2023-04-05T09:30:47;99123.88;;;12.95;25.91
72950;BME280;64868;45.710;9.590;2023-04-05T09:33:20;99109.59;;;13.25;25.69
72950;BME280;64868;45.710;9.590;2023-04-05T09:35:52;99105.84;;;12.59;24.88
72950;BME280;64868;45.710;9.590;2023-04-05T09:38:44;99106.31;;;11.95;26.06
72950;BME280;64868;45.710;9.590;2023-04-05T09:41:17;99109.72;;;12.68;25.99
72950;BME280;64868;45.710;9.590;2023-04-05T09:43:47;99108.47;;;12.94;26.14
72950;BME280;64868;45.710;9.590;2023-04-05T09:46:30;99105.47;;;13.20;25.64
72950;BME280;64868;45.710;9.590;2023-04-05T09:49:00;99106.84;;;12.91;26.34
72950;BME280;64868;45.710;9.590;2023-04-05T09:51:37;99110.81;;;13.32;24.68
72950;BME280;64868;45.710;9.590;2023-04-05T09:54:11;99080.56;;;13.77;24.39
72950;BME280;64868;45.710;9.590;2023-04-05T09:56:54;99099.41;;;14.66;23.13
72950;BME280;64868;45.710;9.590;2023-04-05T09:59:27;99084.06;;;12.46;25.93
72950;BME280;64868;45.710;9.590;2023-04-05T10:02:00;99097.66;;;12.70;25.06
72950;BME280;64868;45.710;9.590;2023-04-05T10:04:37;99095.13;;;13.78;24.40
72950;BME280;64868;45.710;9.590;2023-04-05T10:07:11;99080.50;;;12.79;26.79
72950;BME280;64868;45.710;9.590;2023-04-05T10:09:45;99076.88;;;13.67;24.84
72950;BME280;64868;45.710;9.590;2023-04-05T10:12:24;99096.03;;;13.24;25.74
72950;BME280;64868;45.710;9.590;2023-04-05T10:14:57;99084.56;;;13.41;26.25
72950;BME280;64868;45.710;9.590;2023-04-05T10:17:53;99089.88;;;13.54;25.65
72950;BME280;64868;45.710;9.590;2023-04-05T10:20:29;99091.72;;;13.65;25.26
72950;BME280;64868;45.710;9.590;2023-04-05T10:23:05;99091.78;;;13.20;25.60
72950;BME280;64868;45.710;9.590;2023-04-05T10:28:33;99075.69;;;15.76;22.51
72950;BME280;64868;45.710;9.590;2023-04-05T10:31:11;99046.25;;;16.35;21.71
72950;BME280;64868;45.710;9.590;2023-04-05T10:34:03;99087.66;;;14.84;23.25
72950;BME280;64868;45.710;9.590;2023-04-05T10:36:59;99069.31;;;15.16;23.33
72950;BME280;64868;45.710;9.590;2023-04-05T10:39:38;99063.84;;;17.54;20.61
72950;BME280;64868;45.710;9.590;2023-04-05T10:42:20;99068.25;;;16.44;22.00
72950;BME280;64868;45.710;9.590;2023-04-05T10:44:59;99069.56;;;14.30;24.35
72950;BME280;64868;45.710;9.590;2023-04-05T10:47:36;99052.63;;;12.29;27.32
72950;BME280;64868;45.710;9.590;2023-04-05T10:50:13;99041.63;;;11.96;28.36
72950;BME280;64868;45.710;9.590;2023-04-05T10:52:45;99045.22;;;11.96;27.15
72950;BME280;64868;45.710;9.590;2023-04-05T10:55:18;99059.22;;;12.83;25.78
72950;BME280;64868;45.710;9.590;2023-04-05T10:57:50;99057.34;;;12.83;26.04
72950;BME280;64868;45.710;9.590;2023-04-05T11:00:25;99056.47;;;12.94;25.56
72950;BME280;64868;45.710;9.590;2023-04-05T11:02:58;99037.75;;;13.97;25.64
72950;BME280;64868;45.710;9.590;2023-04-05T11:05:34;99056.38;;;14.97;24.57
72950;BME280;64868;45.710;9.590;2023-04-05T11:08:13;99039.41;;;14.30;25.98
72950;BME280;64868;45.710;9.590;2023-04-05T11:10:40;99049.00;;;13.94;25.29
72950;BME280;64868;45.710;9.590;2023-04-05T11:13:13;99028.56;;;13.66;25.45
72950;BME280;64868;45.710;9.590;2023-04-05T11:15:46;99030.69;;;14.46;26.00
72950;BME280;64868;45.710;9.590;2023-04-05T11:18:45;99030.28;;;14.72;24.77
72950;BME280;64868;45.710;9.590;2023-04-05T11:21:20;99039.00;;;14.96;24.63
72950;BME280;64868;45.710;9.590;2023-04-05T11:24:20;99028.16;;;14.54;25.01
72950;BME280;64868;45.710;9.590;2023-04-05T11:26:55;99040.78;;;15.07;24.53
72950;BME280;64868;45.710;9.590;2023-04-05T11:29:45;99035.06;;;15.29;25.48
72950;BME280;64868;45.710;9.590;2023-04-05T11:32:13;98997.63;;;14.17;24.81
72950;BME280;64868;45.710;9.590;2023-04-05T11:34:46;99016.59;;;13.35;26.52
72950;BME280;64868;45.710;9.590;2023-04-05T11:37:53;99034.47;;;13.07;26.41
72950;BME280;64868;45.710;9.590;2023-04-05T11:40:37;99021.91;;;13.48;25.82
72950;BME280;64868;45.710;9.590;2023-04-05T11:43:09;99015.81;;;14.70;24.36
72950;BME280;64868;45.710;9.590;2023-04-05T11:45:40;99026.13;;;15.37;24.73
72950;BME280;64868;45.710;9.590;2023-04-05T11:48:16;99003.41;;;16.13;24.87
72950;BME280;64868;45.710;9.590;2023-04-05T11:50:49;99011.38;;;15.28;23.57
72950;BME280;64868;45.710;9.590;2023-04-05T11:53:23;99032.13;;;14.20;26.02
72950;BME280;64868;45.710;9.590;2023-04-05T11:55:53;99018.75;;;13.84;25.85
72950;BME280;64868;45.710;9.590;2023-04-05T11:58:24;98984.16;;;14.35;25.41
72950;BME280;64868;45.710;9.590;2023-04-05T12:00:59;99008.34;;;15.31;24.56
72950;BME280;64868;45.710;9.590;2023-04-05T12:03:31;99012.41;;;14.77;24.80
72950;BME280;64868;45.710;9.590;2023-04-05T12:06:05;99009.16;;;14.42;25.71
72950;BME280;64868;45.710;9.590;2023-04-05T12:08:39;98998.34;;;14.40;25.64
72950;BME280;64868;45.710;9.590;2023-04-05T12:11:10;99008.59;;;13.96;26.38
72950;BME280;64868;45.710;9.590;2023-04-05T12:13:40;99008.88;;;14.14;25.54
72950;BME280;64868;45.710;9.590;2023-04-05T12:16:13;99005.59;;;13.99;26.15
72950;BME280;64868;45.710;9.590;2023-04-05T12:18:51;98979.50;;;13.63;26.78
72950;BME280;64868;45.710;9.590;2023-04-05T12:21:24;99004.50;;;14.32;26.50
72950;BME280;64868;45.710;9.590;2023-04-05T12:23:57;98968.34;;;14.18;25.92
72950;BME280;64868;45.710;9.590;2023-04-05T12:26:30;98955.81;;;14.25;24.93
72950;BME280;64868;45.710;9.590;2023-04-05T12:29:05;98985.09;;;12.86;28.00
72950;BME280;64868;45.710;9.590;2023-04-05T12:31:42;98989.47;;;12.88;27.27
72950;BME280;64868;45.710;9.590;2023-04-05T12:34:15;98993.34;;;12.52;28.25
72950;BME280;64868;45.710;9.590;2023-04-05T12:36:54;98980.50;;;13.41;27.07
72950;BME280;64868;45.710;9.590;2023-04-05T12:39:29;98961.47;;;14.02;26.69
72950;BME280;64868;45.710;9.590;2023-04-05T12:42:03;98954.31;;;14.42;26.15
72950;BME280;64868;45.710;9.590;2023-04-05T12:44:33;98977.31;;;13.78;26.41
72950;BME280;64868;45.710;9.590;2023-04-05T12:47:04;98972.53;;;13.38;26.80
72950;BME280;64868;45.710;9.590;2023-04-05T12:49:40;98982.06;;;13.76;26.39
72950;BME280;64868;45.710;9.590;2023-04-05T12:52:21;98974.28;;;14.23;25.92
72950;BME280;64868;45.710;9.590;2023-04-05T12:55:00;98942.66;;;13.98;25.43
72950;BME280;64868;45.710;9.590;2023-04-05T12:57:36;98955.06;;;13.92;26.01
72950;BME280;64868;45.710;9.590;2023-04-05T13:00:07;98937.81;;;13.38;26.76
72950;BME280;64868;45.710;9.590;2023-04-05T13:02:37;98934.16;;;13.49;26.68
72950;BME280;64868;45.710;9.590;2023-04-05T13:05:11;98958.91;;;13.15;26.50
72950;BME280;64868;45.710;9.590;2023-04-05T13:07:38;98955.59;;;13.65;26.05
72950;BME280;64868;45.710;9.590;2023-04-05T13:10:12;98923.72;;;13.64;27.06
72950;BME280;64868;45.710;9.590;2023-04-05T13:12:45;98934.78;;;14.04;25.59
72950;BME280;64868;45.710;9.590;2023-04-05T13:15:18;98947.56;;;13.73;26.67
72950;BME280;64868;45.710;9.590;2023-04-05T13:17:46;98916.63;;;13.41;27.10
72950;BME280;64868;45.710;9.590;2023-04-05T13:20:19;98943.16;;;13.61;26.83
72950;BME280;64868;45.710;9.590;2023-04-05T13:22:52;98932.88;;;13.53;26.46
72950;BME280;64868;45.710;9.590;2023-04-05T13:25:24;98937.13;;;14.40;26.84
72950;BME280;64868;45.710;9.590;2023-04-05T13:27:55;98897.75;;;14.50;25.79
72950;BME280;64868;45.710;9.590;2023-04-05T13:30:27;98924.53;;;13.76;26.19
72950;BME280;64868;45.710;9.590;2023-04-05T13:33:00;98898.78;;;14.49;24.74
72950;BME280;64868;45.710;9.590;2023-04-05T13:35:32;98900.59;;;14.79;25.47
72950;BME280;64868;45.710;9.590;2023-04-05T13:38:02;98904.81;;;15.32;24.80
72950;BME280;64868;45.710;9.590;2023-04-05T13:40:35;98921.72;;;15.18;24.35
72950;BME280;64868;45.710;9.590;2023-04-05T13:43:06;98913.03;;;14.93;24.35
72950;BME280;64868;45.710;9.590;2023-04-05T13:45:39;98916.09;;;15.29;24.82
72950;BME280;64868;45.710;9.590;2023-04-05T13:48:11;98914.47;;;15.07;24.83
72950;BME280;64868;45.710;9.590;2023-04-05T13:50:41;98861.84;;;14.63;24.97